Time;durP1;ratioP1;P1;durP2;ratioP2;P2;SDS_P1;SDS_P2;PMS_P1;PMS_P2;Temp;Humidity;BMP_temperature;BMP_pressure;BME280_temperature;BME280_humidity;BME280_pressure;Samples;Min_cycle;Max_cycle;Signal;HPM_P1;HPM_P2
2023/10/29 00:04:09;;;;;;;4.07;1.88;;;;;;;11.44;100.00;99565.47;10358690;28;20046;-62
2023/10/29 00:09:31;;;;;;;7.18;1.80;;;;;;;11.40;100.00;99538.03;10363032;28;20060;-62
2023/10/29 00:14:53;;;;;;;5.93;1.80;;;;;;;11.43;100.00;99493.84;10360899;28;20049;-62
2023/10/29 00:20:15;;;;;;;6.00;2.17;;;;;;;11.41;100.00;99487.94;10363693;28;20046;-62
2023/10/29 00:25:37;;;;;;;4.75;1.77;;;;;;;11.41;100.00;99508.66;10356818;28;20180;-62
2023/10/29 00:30:59;;;;;;;1.73;1.52;;;;;;;11.44;100.00;99504.13;10362980;28;20042;-62
2023/10/29 00:36:21;;;;;;;3.10;1.40;;;;;;;11.48;100.00;99491.84;10358142;28;20053;-62
2023/10/29 00:41:43;;;;;;;2.25;1.30;;;;;;;11.49;100.00;99496.09;10364988;28;20046;-62
2023/10/29 00:47:06;;;;;;;6.60;1.50;;;;;;;11.49;100.00;99478.81;10361199;28;20050;-62
2023/10/29 00:52:28;;;;;;;4.18;1.60;;;;;;;11.49;100.00;99475.38;10368167;28;20147;-62
2023/10/29 00:57:50;;;;;;;2.58;1.40;;;;;;;11.50;100.00;99477.06;10361641;28;20046;-62
2023/10/29 01:03:12;;;;;;;4.25;1.85;;;;;;;11.54;100.00;99463.00;10359125;28;20048;-62
2023/10/29 01:08:35;;;;;;;1.95;1.55;;;;;;;11.54;100.00;99442.28;10362979;28;20056;-62
2023/10/29 01:13:57;;;;;;;6.25;1.70;;;;;;;11.57;100.00;99429.16;10364100;28;20768;-62
2023/10/29 01:19:19;;;;;;;5.65;2.00;;;;;;;11.58;100.00;99417.88;10360293;28;20160;-62
2023/10/29 01:24:41;;;;;;;3.38;1.90;;;;;;;11.61;100.00;99402.16;10366791;28;20042;-62
2023/10/29 01:30:05;;;;;;;3.55;2.03;;;;;;;11.65;100.00;99390.72;10363845;28;20498;-61
2023/10/29 01:35:27;;;;;;;2.45;1.73;;;;;;;11.66;100.00;99376.84;10373413;28;20056;-62
2023/10/29 01:40:49;;;;;;;2.65;1.90;;;;;;;11.69;100.00;99363.72;10358649;28;20060;-62
2023/10/29 01:46:11;;;;;;;2.70;1.70;;;;;;;11.71;100.00;99346.31;10354417;28;20404;-62
2023/10/29 01:51:33;;;;;;;5.55;2.28;;;;;;;11.78;100.00;99334.66;10366073;28;20049;-62
2023/10/29 01:56:55;;;;;;;3.40;2.08;;;;;;;11.82;100.00;99323.19;10361907;28;20046;-62
2023/10/29 02:02:17;;;;;;;6.28;2.05;;;;;;;11.84;100.00;99326.53;10357440;28;20045;-62
2023/10/29 02:07:39;;;;;;;5.00;2.40;;;;;;;11.86;100.00;99298.78;10375427;28;20049;-62
2023/10/29 02:13:01;;;;;;;2.85;1.75;;;;;;;11.89;100.00;99303.75;10376613;28;20587;-62
2023/10/29 02:18:23;;;;;;;3.45;1.83;;;;;;;11.93;100.00;99292.28;10357932;28;20072;-62
2023/10/29 02:23:46;;;;;;;5.47;1.92;;;;;;;11.97;100.00;99293.78;10369129;28;20038;-62
2023/10/29 02:29:08;;;;;;;2.90;2.05;;;;;;;12.00;100.00;99278.03;10362122;28;20471;-62
2023/10/29 02:34:30;;;;;;;4.25;2.08;;;;;;;12.03;100.00;99254.53;10367676;28;20049;-62
2023/10/29 02:39:52;;;;;;;3.03;1.83;;;;;;;12.04;100.00;99256.19;10364699;28;20049;-62
2023/10/29 02:45:14;;;;;;;4.97;1.95;;;;;;;12.08;100.00;99236.91;10360817;28;20487;-62
2023/10/29 02:50:37;;;;;;;4.57;2.08;;;;;;;12.09;100.00;99226.44;10364587;28;20608;-62
2023/10/29 02:56:02;;;;;;;3.80;2.00;;;;;;;12.13;100.00;99224.50;10362409;28;20057;-62
2023/10/29 03:01:24;;;;;;;5.05;2.00;;;;;;;12.15;100.00;99212.28;10370193;28;20128;-62
2023/10/29 03:06:46;;;;;;;2.83;2.00;;;;;;;12.17;100.00;99205.22;10371311;28;20086;-62
2023/10/29 03:12:08;;;;;;;7.43;2.08;;;;;;;12.22;100.00;99205.78;10364626;28;20133;-62
2023/10/29 03:17:30;;;;;;;3.15;1.92;;;;;;;12.24;100.00;99188.34;10363312;28;20085;-62
2023/10/29 03:22:52;;;;;;;3.13;1.70;;;;;;;12.24;100.00;99182.31;10372702;28;20513;-62
2023/10/29 03:28:14;;;;;;;2.10;1.60;;;;;;;12.26;100.00;99167.50;10371737;28;20048;-62
2023/10/29 03:33:36;;;;;;;3.80;1.67;;;;;;;12.26;100.00;99177.88;10368485;28;20706;-62
2023/10/29 03:38:58;;;;;;;5.80;1.52;;;;;;;12.27;100.00;99176.97;10370399;28;20089;-63
2023/10/29 03:44:20;;;;;;;2.55;1.35;;;;;;;12.29;100.00;99194.06;10363736;28;20523;-62
2023/10/29 03:49:42;;;;;;;2.90;1.40;;;;;;;12.29;100.00;99183.69;10363661;28;20057;-62
2023/10/29 03:55:05;;;;;;;1.92;1.20;;;;;;;12.31;100.00;99181.84;10371560;28;20068;-62
2023/10/29 04:00:27;;;;;;;3.65;1.17;;;;;;;12.33;100.00;99185.19;10369867;28;20411;-62
2023/10/29 04:05:49;;;;;;;2.33;1.35;;;;;;;12.36;100.00;99179.78;10364415;28;20056;-62
2023/10/29 04:11:11;;;;;;;2.63;1.13;;;;;;;12.39;100.00;99150.22;10361501;28;20148;-62
2023/10/29 04:16:33;;;;;;;1.77;1.10;;;;;;;12.42;100.00;99156.06;10366363;28;20132;-62
2023/10/29 04:21:55;;;;;;;1.73;1.10;;;;;;;12.43;100.00;99146.50;10370454;28;20045;-63
2023/10/29 04:27:17;;;;;;;2.35;1.30;;;;;;;12.46;100.00;99160.13;10368110;28;20058;-62
2023/10/29 04:32:39;;;;;;;4.93;1.40;;;;;;;12.48;100.00;99140.09;10366650;28;20061;-62
2023/10/29 04:38:01;;;;;;;4.03;1.60;;;;;;;12.52;100.00;99126.00;10365119;28;20132;-62
2023/10/29 04:43:23;;;;;;;4.63;1.20;;;;;;;12.54;100.00;99116.34;10363777;28;20045;-62
2023/10/29 04:48:45;;;;;;;1.60;0.80;;;;;;;12.57;100.00;99100.59;10358298;28;20050;-62
2023/10/29 04:54:07;;;;;;;2.60;1.05;;;;;;;12.60;100.00;99100.38;10368756;28;20042;-62
2023/10/29 04:59:29;;;;;;;3.65;0.90;;;;;;;12.62;100.00;99092.47;10367208;28;20415;-62
2023/10/29 05:04:51;;;;;;;1.70;1.00;;;;;;;12.62;100.00;99088.13;10358896;28;20087;-62
2023/10/29 05:10:13;;;;;;;3.30;1.08;;;;;;;12.63;100.00;99101.94;10364504;28;20488;-62
2023/10/29 05:15:35;;;;;;;2.10;1.10;;;;;;;12.65;100.00;99103.50;10363053;28;20053;-63
2023/10/29 05:20:57;;;;;;;4.40;1.48;;;;;;;12.68;100.00;99089.47;10364764;28;20103;-62
2023/10/29 05:26:22;;;;;;;2.17;1.00;;;;;;;12.68;100.00;99079.94;10362433;28;20050;-63
2023/10/29 05:31:44;;;;;;;2.63;1.02;;;;;;;12.69;100.00;99089.38;10364404;28;20545;-63
2023/10/29 05:37:06;;;;;;;2.15;0.90;;;;;;;12.71;100.00;99095.31;10367723;28;20041;-62
2023/10/29 05:42:28;;;;;;;1.77;1.00;;;;;;;12.74;100.00;99076.09;10358954;28;20041;-62
2023/10/29 05:47:50;;;;;;;2.85;1.10;;;;;;;12.74;100.00;99076.94;10356398;28;20042;-63
2023/10/29 05:53:13;;;;;;;1.92;1.17;;;;;;;12.73;100.00;99098.63;10365603;28;20046;-61
2023/10/29 05:58:35;;;;;;;2.78;0.90;;;;;;;12.73;100.00;99100.38;10361749;28;20042;-62
2023/10/29 06:03:57;;;;;;;2.65;0.90;;;;;;;12.74;100.00;99102.06;10360625;28;20133;-63
2023/10/29 06:09:19;;;;;;;0.93;0.70;;;;;;;12.78;100.00;99101.75;10359222;28;20050;-63
2023/10/29 06:14:46;;;;;;;2.25;0.82;;;;;;;12.85;100.00;99092.63;10364067;28;20046;-62
2023/10/29 06:20:10;;;;;;;3.17;0.80;;;;;;;12.88;100.00;99095.00;10357043;28;20077;-62
2023/10/29 06:25:32;;;;;;;3.50;0.80;;;;;;;12.94;100.00;99107.59;10362419;28;20427;-62
2023/10/29 06:30:54;;;;;;;1.77;0.70;;;;;;;12.97;100.00;99109.97;10368285;28;20050;-63
2023/10/29 06:36:16;;;;;;;1.75;0.80;;;;;;;12.97;100.00;99102.19;10364378;28;20050;-62
2023/10/29 06:41:38;;;;;;;4.05;0.80;;;;;;;12.97;100.00;99120.34;10372464;28;20046;-62
2023/10/29 06:47:00;;;;;;;2.47;0.70;;;;;;;13.13;100.00;99119.34;10376429;28;20042;-62
2023/10/29 06:52:22;;;;;;;3.75;0.80;;;;;;;13.16;100.00;99119.13;10373132;28;20112;-62
2023/10/29 06:57:44;;;;;;;4.57;0.88;;;;;;;13.24;100.00;99109.88;10364969;28;20479;-63
2023/10/29 07:03:07;;;;;;;3.65;0.80;;;;;;;13.28;100.00;99121.72;10372629;28;20060;-62
2023/10/29 07:08:29;;;;;;;3.28;0.70;;;;;;;13.27;100.00;99127.88;10363577;28;20145;-62
2023/10/29 07:13:52;;;;;;;2.58;0.65;;;;;;;13.27;100.00;99153.00;10367798;28;20078;-62
2023/10/29 07:19:16;;;;;;;4.03;0.70;;;;;;;13.30;100.00;99156.22;10375210;28;20052;-63
2023/10/29 07:24:38;;;;;;;2.35;0.60;;;;;;;13.29;100.00;99145.94;10370732;28;20502;-63
2023/10/29 07:30:02;;;;;;;1.30;0.70;;;;;;;13.34;100.00;99149.06;10366913;28;20117;-62
2023/10/29 07:35:24;;;;;;;3.85;0.90;;;;;;;13.37;100.00;99141.88;10364871;28;20060;-62
2023/10/29 07:40:46;;;;;;;1.30;0.70;;;;;;;13.45;100.00;99162.16;10362172;28;20041;-62
2023/10/29 07:46:08;;;;;;;3.60;0.88;;;;;;;13.49;100.00;99148.00;10372455;28;20050;-63
2023/10/29 07:51:30;;;;;;;3.30;0.80;;;;;;;13.59;100.00;99138.63;10368285;28;20042;-62
2023/10/29 07:56:53;;;;;;;3.92;0.70;;;;;;;13.53;100.00;99154.66;10360852;28;20134;-63
2023/10/29 08:02:15;;;;;;;1.63;0.70;;;;;;;13.48;100.00;99146.38;10370837;28;20038;-62
2023/10/29 08:07:38;;;;;;;4.68;0.80;;;;;;;13.43;100.00;99179.59;10365051;28;20038;-62
2023/10/29 08:13:02;;;;;;;1.60;0.73;;;;;;;13.41;100.00;99173.69;10364088;28;20452;-62
2023/10/29 08:18:24;;;;;;;3.80;0.80;;;;;;;13.45;100.00;99193.31;10364686;28;20100;-62
2023/10/29 08:23:47;;;;;;;2.53;0.98;;;;;;;13.51;100.00;99217.16;10367246;28;20414;-62
2023/10/29 08:29:11;;;;;;;6.15;1.00;;;;;;;13.61;100.00;99202.56;10358398;28;20043;-62
2023/10/29 08:34:33;;;;;;;2.10;0.63;;;;;;;13.71;100.00;99220.97;10356351;28;20050;-62
2023/10/29 08:39:59;;;;;;;3.13;0.63;;;;;;;13.76;100.00;99219.72;10363628;28;20164;-62
2023/10/29 08:45:22;;;;;;;2.28;0.65;;;;;;;13.82;100.00;99213.28;10365634;28;20046;-63
2023/10/29 08:51:02;;;;;;;4.97;0.90;;;;;;;13.86;100.00;99227.72;10362888;28;20124;-63
2023/10/29 08:56:24;;;;;;;1.25;0.45;;;;;;;13.85;100.00;99246.84;10359954;28;20043;-62
2023/10/29 09:01:46;;;;;;;1.27;0.43;;;;;;;13.86;99.93;99244.16;10364430;28;20042;-62
2023/10/29 09:07:08;;;;;;;5.13;0.50;;;;;;;13.91;97.79;99243.84;10360157;28;20083;-62
2023/10/29 09:12:30;;;;;;;3.58;0.60;;;;;;;13.85;99.11;99234.69;10359690;28;20052;-62
2023/10/29 09:17:52;;;;;;;1.25;0.43;;;;;;;13.90;98.52;99274.22;10363961;28;20042;-63
2023/10/29 09:23:14;;;;;;;4.75;0.85;;;;;;;13.99;97.96;99304.78;10362516;28;20046;-63
2023/10/29 09:28:37;;;;;;;5.95;0.60;;;;;;;14.02;97.46;99288.16;10358366;28;20453;-62
2023/10/29 09:34:00;;;;;;;3.22;0.40;;;;;;;14.12;95.57;99295.22;10359455;28;20553;-62
2023/10/29 09:39:22;;;;;;;2.47;0.60;;;;;;;14.17;96.00;99312.28;10358455;28;20054;-63
2023/10/29 09:44:47;;;;;;;3.70;0.85;;;;;;;14.37;94.62;99315.19;10357540;28;20135;-62
2023/10/29 09:50:10;;;;;;;6.05;0.80;;;;;;;14.39;93.68;99328.94;10360567;28;20406;-62
2023/10/29 09:55:33;;;;;;;3.10;0.68;;;;;;;14.48;92.01;99333.50;10358106;28;20060;-62
2023/10/29 10:00:58;;;;;;;4.53;0.77;;;;;;;14.62;90.69;99335.97;10355372;28;20046;-62
2023/10/29 10:06:20;;;;;;;5.10;0.95;;;;;;;14.70;90.98;99349.28;10357345;28;20137;-62
2023/10/29 10:11:42;;;;;;;5.07;0.70;;;;;;;14.75;91.55;99361.97;10367472;28;20053;-62
2023/10/29 10:17:11;;;;;;;4.25;0.82;;;;;;;14.85;91.06;99363.00;10367398;28;20493;-62
2023/10/29 10:22:35;;;;;;;7.05;1.10;;;;;;;14.98;91.42;99375.00;10365815;28;20049;-62
2023/10/29 10:27:59;;;;;;;5.03;0.90;;;;;;;15.12;88.94;99371.44;10370121;28;20121;-63
2023/10/29 10:33:20;;;;;;;6.22;1.00;;;;;;;15.23;88.72;99370.66;10365989;28;20386;-62
2023/10/29 10:38:51;;;;;;;6.82;0.95;;;;;;;15.30;86.06;99379.69;10359760;28;20042;-62
2023/10/29 10:44:15;;;;;;;5.80;1.00;;;;;;;15.18;87.80;99354.53;10369141;28;20057;-62
2023/10/29 10:49:41;;;;;;;5.70;1.10;;;;;;;15.10;87.50;99353.31;10371764;28;20391;-62
2023/10/29 10:55:04;;;;;;;2.55;0.88;;;;;;;15.24;87.92;99359.25;10372026;28;20140;-62
2023/10/29 11:00:26;;;;;;;3.47;0.80;;;;;;;15.41;84.85;99361.50;10365150;28;20129;-62
2023/10/29 11:05:49;;;;;;;6.47;1.10;;;;;;;15.52;86.02;99361.56;10362186;28;20041;-62
2023/10/29 11:11:11;;;;;;;3.53;0.90;;;;;;;15.65;84.32;99365.78;10370194;28;20078;-62
2023/10/29 11:16:44;;;;;;;4.47;1.00;;;;;;;15.71;82.14;99382.75;10367525;28;20050;-63
2023/10/29 11:22:22;;;;;;;4.95;1.23;;;;;;;15.73;79.43;99384.28;10367601;28;20121;-63
2023/10/29 11:27:46;;;;;;;6.30;1.17;;;;;;;15.64;81.07;99368.50;10359988;28;20094;-63
2023/10/29 11:33:17;;;;;;;5.70;1.13;;;;;;;15.69;83.14;99355.94;10367884;28;20076;-62
2023/10/29 11:38:40;;;;;;;6.40;1.10;;;;;;;15.79;80.78;99343.84;10374487;28;20052;-62
2023/10/29 11:44:17;;;;;;;7.70;0.90;;;;;;;15.78;78.38;99363.06;10369279;28;20119;-62
2023/10/29 11:49:45;;;;;;;4.55;0.88;;;;;;;15.78;77.58;99370.91;10382635;28;20043;-62
2023/10/29 11:55:09;;;;;;;6.43;0.80;;;;;;;15.74;77.15;99366.84;10363295;28;20543;-62
2023/10/29 12:00:38;;;;;;;3.90;0.93;;;;;;;15.67;77.22;99374.31;10364849;28;20054;-62
2023/10/29 12:06:01;;;;;;;5.30;1.10;;;;;;;15.66;77.50;99382.22;10360159;28;20051;-62
2023/10/29 12:11:25;;;;;;;4.55;1.08;;;;;;;15.63;78.69;99387.69;10366894;28;20077;-62
2023/10/29 12:16:47;;;;;;;6.18;1.05;;;;;;;15.66;79.35;99405.69;10358958;28;20499;-62
2023/10/29 12:22:21;;;;;;;7.47;1.30;;;;;;;15.67;77.69;99389.13;10364515;28;20049;-62
2023/10/29 12:27:44;;;;;;;6.30;1.02;;;;;;;15.69;78.77;99382.03;10362078;28;20042;-62
2023/10/29 12:33:22;;;;;;;3.33;0.90;;;;;;;15.72;77.49;99392.22;10362850;28;20093;-62
2023/10/29 12:38:44;;;;;;;3.58;1.00;;;;;;;15.72;80.82;99379.19;10364879;28;20061;-62
2023/10/29 12:44:16;;;;;;;5.25;1.10;;;;;;;15.67;78.29;99360.44;10367631;28;20046;-62
2023/10/29 12:49:38;;;;;;;9.93;1.00;;;;;;;15.67;79.58;99357.81;10366555;28;20052;-62
2023/10/29 12:55:00;;;;;;;5.43;1.08;;;;;;;15.62;74.19;99362.56;10360281;28;20041;-62
2023/10/29 13:00:23;;;;;;;6.65;1.00;;;;;;;15.57;76.79;99360.28;10373069;28;20049;-62
2023/10/29 13:05:45;;;;;;;6.53;0.93;;;;;;;15.59;77.69;99354.94;10367204;28;20057;-62
2023/10/29 13:11:07;;;;;;;6.60;0.90;;;;;;;15.57;77.36;99351.63;10366101;28;20042;-62
2023/10/29 13:16:29;;;;;;;5.72;1.00;;;;;;;15.52;76.93;99354.59;10374322;28;20169;-62
2023/10/29 13:21:52;;;;;;;4.80;0.80;;;;;;;15.54;79.63;99346.63;10364293;28;20042;-62
2023/10/29 13:27:14;;;;;;;5.80;1.13;;;;;;;15.54;79.61;99341.41;10357298;28;20053;-62
2023/10/29 13:32:37;;;;;;;4.80;1.10;;;;;;;15.50;80.42;99351.25;10362862;28;20075;-62
2023/10/29 13:37:59;;;;;;;5.60;1.08;;;;;;;15.49;81.95;99315.69;10362335;28;20086;-62
2023/10/29 13:43:22;;;;;;;6.82;2.05;;;;;;;15.46;82.01;99307.25;10366608;28;20038;-62
2023/10/29 13:48:45;;;;;;;8.40;1.40;;;;;;;15.57;82.20;99320.31;10365611;28;20944;-62
2023/10/29 13:54:08;;;;;;;7.25;1.50;;;;;;;15.59;82.88;99318.44;10361972;28;20495;-62
2023/10/29 13:59:30;;;;;;;5.82;1.30;;;;;;;15.53;82.70;99331.94;10358530;28;20482;-62
2023/10/29 14:04:52;;;;;;;4.15;0.90;;;;;;;15.42;79.79;99358.78;10363916;28;20042;-62
2023/10/29 14:10:14;;;;;;;6.15;1.00;;;;;;;15.42;81.33;99368.41;10360301;28;20042;-62
2023/10/29 14:15:36;;;;;;;3.75;0.90;;;;;;;15.34;81.94;99355.06;10361917;28;20077;-62
2023/10/29 14:20:59;;;;;;;5.50;1.02;;;;;;;15.32;80.09;99349.13;10363891;28;20034;-62
2023/10/29 14:26:21;;;;;;;7.20;1.10;;;;;;;15.38;79.24;99354.75;10357697;28;20042;-62
2023/10/29 14:31:43;;;;;;;7.05;0.95;;;;;;;15.39;79.92;99360.75;10359065;28;20040;-63
2023/10/29 14:37:05;;;;;;;8.07;1.40;;;;;;;15.41;78.22;99346.72;10361796;28;20046;-62
2023/10/29 14:42:28;;;;;;;6.43;1.10;;;;;;;15.35;76.71;99335.84;10366251;28;20161;-62
2023/10/29 14:47:52;;;;;;;5.20;0.90;;;;;;;15.38;78.92;99335.66;10361496;28;20172;-62
2023/10/29 14:53:14;;;;;;;5.18;1.25;;;;;;;15.32;78.76;99336.94;10358702;28;20042;-62
2023/10/29 14:58:36;;;;;;;8.23;1.30;;;;;;;15.31;78.45;99324.03;10366757;28;20108;-62
2023/10/29 15:03:58;;;;;;;5.38;1.48;;;;;;;15.28;79.48;99305.97;10365650;28;20122;-62
2023/10/29 15:09:20;;;;;;;4.72;0.93;;;;;;;15.20;79.98;99308.34;10366043;28;20037;-62
2023/10/29 15:14:43;;;;;;;3.70;1.00;;;;;;;15.10;81.31;99319.44;10365274;28;20042;-63
2023/10/29 15:20:08;;;;;;;4.38;0.80;;;;;;;15.02;81.37;99313.94;10368933;28;20052;-62
2023/10/29 15:25:30;;;;;;;4.25;1.10;;;;;;;14.96;82.40;99298.75;10362358;28;20065;-63
2023/10/29 15:30:52;;;;;;;4.80;1.30;;;;;;;14.82;82.37;99298.91;10367067;28;20125;-62
2023/10/29 15:36:14;;;;;;;5.30;1.00;;;;;;;14.78;83.27;99294.84;10366731;28;20057;-63
2023/10/29 15:41:37;;;;;;;4.72;1.25;;;;;;;14.73;84.64;99291.75;10366778;28;20055;-62
2023/10/29 15:46:59;;;;;;;5.57;1.02;;;;;;;14.67;81.27;99292.19;10365581;28;20531;-62
2023/10/29 15:52:22;;;;;;;5.93;1.25;;;;;;;14.75;82.89;99295.09;10364902;28;20124;-63
2023/10/29 15:57:44;;;;;;;3.95;1.00;;;;;;;14.71;83.50;99293.63;10361179;28;20120;-62
2023/10/29 16:03:06;;;;;;;6.43;1.00;;;;;;;14.68;83.32;99272.19;10359322;28;20046;-63
2023/10/29 16:08:28;;;;;;;4.97;1.10;;;;;;;14.63;83.73;99280.31;10359743;28;20275;-63
2023/10/29 16:13:50;;;;;;;5.38;0.80;;;;;;;14.59;85.56;99286.72;10369181;28;20037;-63
2023/10/29 16:19:12;;;;;;;3.00;0.90;;;;;;;14.61;83.16;99287.44;10364665;28;20045;-63
2023/10/29 16:24:34;;;;;;;5.05;1.10;;;;;;;14.59;83.86;99294.53;10362688;28;20042;-63
2023/10/29 16:29:56;;;;;;;3.70;0.90;;;;;;;14.55;85.67;99295.69;10361292;28;20423;-62
2023/10/29 16:35:18;;;;;;;6.75;1.00;;;;;;;14.52;86.32;99319.31;10365348;28;20383;-63
2023/10/29 16:40:43;;;;;;;3.58;1.02;;;;;;;14.31;90.08;99315.63;10364373;28;20071;-62
2023/10/29 16:46:09;;;;;;;3.03;1.07;;;;;;;14.14;92.72;99292.50;10361253;28;20495;-63
2023/10/29 16:51:31;;;;;;;5.60;1.40;;;;;;;14.02;94.14;99295.94;10363505;28;20078;-63
2023/10/29 16:56:54;;;;;;;4.63;1.13;;;;;;;13.89;96.67;99284.72;10363072;28;20041;-63
2023/10/29 17:02:16;;;;;;;3.05;1.00;;;;;;;13.71;97.58;99280.78;10364312;28;20041;-62
2023/10/29 17:07:38;;;;;;;8.88;1.50;;;;;;;13.53;98.23;99282.84;10363299;28;20061;-62
2023/10/29 17:13:00;;;;;;;5.45;1.90;;;;;;;13.49;98.89;99293.53;10364678;28;20519;-62
2023/10/29 17:18:24;;;;;;;7.35;1.75;;;;;;;13.48;98.65;99297.91;10360661;28;20046;-63
2023/10/29 17:23:47;;;;;;;7.72;2.05;;;;;;;13.41;99.51;99306.19;10362175;28;20057;-62
2023/10/29 17:29:10;;;;;;;11.77;2.22;;;;;;;13.37;100.00;99312.56;10359239;28;20466;-63
2023/10/29 17:34:32;;;;;;;6.75;2.08;;;;;;;13.34;98.94;99315.34;10366373;28;20050;-63
2023/10/29 17:39:56;;;;;;;10.43;2.05;;;;;;;13.33;99.87;99331.88;10362705;28;20169;-62
2023/10/29 17:45:19;;;;;;;3.85;1.50;;;;;;;13.34;99.00;99336.13;10365121;28;20490;-63
2023/10/29 17:50:42;;;;;;;7.55;2.20;;;;;;;13.33;99.92;99347.44;10356436;28;20049;-63
2023/10/29 17:56:04;;;;;;;7.55;2.00;;;;;;;13.30;97.95;99345.03;10373705;28;20538;-62
2023/10/29 18:01:27;;;;;;;7.85;1.58;;;;;;;13.29;97.54;99361.56;10364495;28;20050;-62
2023/10/29 18:06:54;;;;;;;5.43;1.60;;;;;;;13.34;97.37;99381.13;10359761;28;20044;-62
2023/10/29 18:12:15;;;;;;;3.58;1.58;;;;;;;13.26;98.76;99382.56;10362627;28;20103;-62
2023/10/29 18:17:37;;;;;;;2.80;1.08;;;;;;;13.11;98.93;99397.38;10359270;28;20136;-62
2023/10/29 18:22:59;;;;;;;3.42;0.95;;;;;;;13.06;99.64;99402.81;10362587;28;20038;-62
2023/10/29 18:28:24;;;;;;;4.07;0.98;;;;;;;12.96;100.00;99383.56;10362218;28;20360;-62
2023/10/29 18:33:46;;;;;;;4.55;1.10;;;;;;;12.99;100.00;99377.31;10369612;28;20119;-63
2023/10/29 18:39:09;;;;;;;5.03;1.10;;;;;;;12.95;100.00;99392.25;10378198;28;20045;-63
2023/10/29 18:44:31;;;;;;;3.72;1.25;;;;;;;12.89;100.00;99382.25;10366336;28;20046;-63
2023/10/29 18:49:53;;;;;;;3.25;1.20;;;;;;;12.81;100.00;99379.31;10370747;28;20160;-62
2023/10/29 18:55:15;;;;;;;4.43;1.23;;;;;;;12.79;100.00;99378.56;10365967;28;20050;-62
2023/10/29 19:00:37;;;;;;;3.10;1.38;;;;;;;12.72;100.00;99376.44;10365141;28;20058;-62
2023/10/29 19:05:59;;;;;;;3.28;1.25;;;;;;;12.73;100.00;99371.16;10362324;28;20072;-62
2023/10/29 19:11:21;;;;;;;2.50;1.30;;;;;;;12.69;100.00;99372.25;10362513;28;20046;-63
2023/10/29 19:16:43;;;;;;;2.67;0.90;;;;;;;12.67;100.00;99371.53;10361110;28;20220;-62
2023/10/29 19:22:08;;;;;;;1.67;1.05;;;;;;;12.63;100.00;99370.06;10357819;28;20671;-63
2023/10/29 19:27:30;;;;;;;3.85;0.93;;;;;;;12.64;100.00;99371.72;10361327;28;20064;-63
2023/10/29 19:32:52;;;;;;;2.50;1.05;;;;;;;12.64;100.00;99397.69;10359762;28;20045;-62
2023/10/29 19:38:14;;;;;;;3.80;1.60;;;;;;;12.62;100.00;99383.97;10365379;28;20420;-63
2023/10/29 19:43:36;;;;;;;2.95;1.27;;;;;;;12.58;100.00;99418.81;10371997;28;20128;-63
2023/10/29 19:49:02;;;;;;;6.78;1.20;;;;;;;12.59;100.00;99417.06;10358172;28;20135;-63
2023/10/29 19:54:24;;;;;;;1.08;0.60;;;;;;;12.44;99.65;99405.00;10360346;28;20089;-62
2023/10/29 19:59:48;;;;;;;1.88;0.40;;;;;;;12.36;100.00;99428.81;10366051;28;20183;-63
2023/10/29 20:05:11;;;;;;;4.80;0.70;;;;;;;12.31;100.00;99435.19;10363026;28;20590;-63
2023/10/29 20:10:40;;;;;;;0.68;0.35;;;;;;;12.25;100.00;99438.97;10365288;28;20061;-63
2023/10/29 20:16:01;;;;;;;1.77;0.47;;;;;;;12.28;100.00;99454.38;10361712;28;20042;-63
2023/10/29 20:21:24;;;;;;;0.68;0.30;;;;;;;12.27;98.81;99465.66;10365509;28;20043;-63
2023/10/29 20:26:47;;;;;;;6.50;1.00;;;;;;;12.21;99.51;99466.03;10366452;28;20499;-63
2023/10/29 20:32:08;;;;;;;0.85;0.50;;;;;;;12.14;99.22;99475.94;10363048;28;20077;-62
2023/10/29 20:37:31;;;;;;;1.35;0.50;;;;;;;12.13;98.67;99481.22;10370749;28;20159;-61
2023/10/29 20:42:52;;;;;;;1.92;0.30;;;;;;;12.08;98.13;99480.66;10362971;28;20038;-62
2023/10/29 20:48:14;;;;;;;1.75;0.40;;;;;;;12.09;98.36;99488.31;10358789;28;20168;-63
2023/10/29 20:53:37;;;;;;;2.47;0.52;;;;;;;12.08;98.59;99499.63;10364232;28;20071;-62
2023/10/29 20:58:59;;;;;;;0.98;0.45;;;;;;;12.10;97.86;99502.94;10360874;28;20056;-63
2023/10/29 21:04:21;;;;;;;2.42;0.60;;;;;;;12.10;98.49;99504.72;10366648;28;20047;-62
2023/10/29 21:09:44;;;;;;;2.65;0.50;;;;;;;12.09;99.03;99518.59;10367385;28;20034;-63
2023/10/29 21:15:06;;;;;;;2.22;0.57;;;;;;;12.13;99.41;99530.47;10378875;28;20565;-63
2023/10/29 21:20:28;;;;;;;2.25;0.68;;;;;;;12.17;98.74;99542.34;10364248;28;20050;-62
2023/10/29 21:25:57;;;;;;;3.33;0.77;;;;;;;12.28;97.02;99560.72;10363270;28;20526;-63
2023/10/29 21:31:19;;;;;;;1.70;0.50;;;;;;;12.34;95.82;99565.56;10366244;28;20038;-63
2023/10/29 21:36:41;;;;;;;3.05;0.70;;;;;;;12.37;96.22;99575.75;10362446;28;20629;-62
2023/10/29 21:42:03;;;;;;;2.38;0.70;;;;;;;12.40;95.42;99572.97;10358673;28;20533;-63
2023/10/29 21:47:25;;;;;;;3.40;0.80;;;;;;;12.36;96.23;99575.84;10364712;28;20054;-63
2023/10/29 21:52:47;;;;;;;2.45;0.70;;;;;;;12.42;96.26;99572.88;10358089;28;20063;-63
2023/10/29 21:58:09;;;;;;;1.75;0.70;;;;;;;12.44;95.68;99579.66;10363110;28;20056;-62
2023/10/29 22:03:33;;;;;;;3.20;0.70;;;;;;;12.45;94.64;99589.13;10362322;28;20561;-62
2023/10/29 22:08:55;;;;;;;2.30;0.57;;;;;;;12.45;94.82;99599.53;10368093;28;20046;-63
2023/10/29 22:14:17;;;;;;;3.75;0.68;;;;;;;12.37;94.84;99595.66;10360658;28;20092;-63
2023/10/29 22:19:40;;;;;;;3.60;0.80;;;;;;;12.36;94.60;99610.38;10363509;28;20053;-63
2023/10/29 22:25:03;;;;;;;2.03;0.70;;;;;;;12.33;94.37;99620.94;10357201;28;20053;-63
2023/10/29 22:30:24;;;;;;;2.05;0.60;;;;;;;12.28;94.39;99628.16;10360022;28;20042;-63
2023/10/29 22:35:57;;;;;;;4.07;0.77;;;;;;;12.28;93.80;99622.97;10363744;28;20045;-63
2023/10/29 22:41:19;;;;;;;3.95;0.80;;;;;;;12.28;93.51;99637.69;10365958;28;20168;-63
2023/10/29 22:46:41;;;;;;;1.05;0.65;;;;;;;12.26;92.70;99627.41;10359182;28;20060;-63
2023/10/29 22:52:05;;;;;;;2.22;0.90;;;;;;;12.23;93.27;99639.72;10363722;28;20083;-63
2023/10/29 22:57:27;;;;;;;8.82;0.95;;;;;;;12.17;93.87;99648.69;10361194;28;20049;-63
2023/10/29 23:02:49;;;;;;;3.67;0.90;;;;;;;12.16;93.52;99665.13;10371853;28;20762;-63
2023/10/29 23:08:11;;;;;;;7.97;1.08;;;;;;;12.16;93.65;99683.28;10366452;28;20128;-63
2023/10/29 23:13:33;;;;;;;5.30;0.88;;;;;;;12.14;93.69;99677.38;10354642;28;20076;-63
2023/10/29 23:18:55;;;;;;;7.45;1.55;;;;;;;12.13;93.73;99686.06;10363911;28;20419;-63
2023/10/29 23:24:17;;;;;;;7.75;1.00;;;;;;;12.13;93.54;99693.84;10365393;28;20042;-63
2023/10/29 23:29:39;;;;;;;4.22;0.98;;;;;;;12.06;93.77;99701.13;10377193;28;20120;-63
2023/10/29 23:35:03;;;;;;;11.40;1.48;;;;;;;12.06;94.18;99705.47;10365404;28;20046;-63
2023/10/29 23:40:25;;;;;;;8.43;1.25;;;;;;;12.05;94.10;99708.97;10368211;28;20502;-63
2023/10/29 23:45:47;;;;;;;8.95;1.60;;;;;;;12.03;93.66;99731.59;10365285;28;20385;-63
2023/10/29 23:51:09;;;;;;;9.27;1.67;;;;;;;12.02;93.67;99740.25;10367154;28;20120;-63
2023/10/29 23:56:30;;;;;;;5.40;1.00;;;;;;;12.01;93.56;99748.97;10365870;28;20050;-63
